createdAt,value
2022-10-20T00:02:42.313Z,20.57
2022-10-20T00:07:45.841Z,20.57
2022-10-20T00:12:48.991Z,20.56
2022-10-20T00:17:53.829Z,20.55
2022-10-20T00:22:57.174Z,20.57
2022-10-20T00:28:00.610Z,20.65
2022-10-20T00:33:08.072Z,20.74
2022-10-20T00:38:14.920Z,20.81
2022-10-20T00:43:19.779Z,20.89
2022-10-20T00:48:28.418Z,20.96
2022-10-20T00:53:31.936Z,21.04
2022-10-20T00:58:35.788Z,21.11
2022-10-20T01:03:51.516Z,21.13
2022-10-20T01:08:57.570Z,21.12
2022-10-20T01:14:03.000Z,21.08
2022-10-20T01:19:38.150Z,21.03
2022-10-20T01:25:03.355Z,20.98
2022-10-20T01:30:17.674Z,20.94
2022-10-20T01:35:23.695Z,20.90
2022-10-20T01:40:58.677Z,20.84
2022-10-20T01:46:03.650Z,20.90
2022-10-20T01:51:08.427Z,20.92
2022-10-20T01:56:30.242Z,20.89
2022-10-20T02:02:18.136Z,20.93
2022-10-20T02:07:29.431Z,20.88
2022-10-20T02:12:37.938Z,20.78
2022-10-20T02:18:05.910Z,20.70
2022-10-20T02:23:10.282Z,20.65
2022-10-20T02:28:15.942Z,20.70
2022-10-20T02:33:20.283Z,20.78
2022-10-20T02:38:24.392Z,20.81
2022-10-20T02:43:27.897Z,20.81
2022-10-20T02:48:31.116Z,20.78
2022-10-20T02:53:34.579Z,20.74
2022-10-20T02:58:38.190Z,20.65
2022-10-20T03:03:41.893Z,20.62
2022-10-20T03:08:45.310Z,20.57
2022-10-20T03:13:48.445Z,20.52
2022-10-20T03:18:51.802Z,20.47
2022-10-20T03:23:57.044Z,20.45
2022-10-20T03:29:00.699Z,20.41
2022-10-20T03:34:03.974Z,20.38
2022-10-20T03:39:07.514Z,20.37
2022-10-20T03:44:11.638Z,20.34
2022-10-20T03:49:15.155Z,20.35
2022-10-20T03:54:18.445Z,20.38
2022-10-20T03:59:24.437Z,20.44
2022-10-20T04:04:30.015Z,20.48
2022-10-20T04:09:33.373Z,20.55
2022-10-20T04:14:39.539Z,20.58
2022-10-20T04:19:42.822Z,20.68
2022-10-20T04:24:45.987Z,20.73
2022-10-20T04:29:50.393Z,20.82
2022-10-20T04:34:53.935Z,20.86
2022-10-20T04:39:57.451Z,20.88
2022-10-20T04:45:01.203Z,20.91
2022-10-20T04:50:06.748Z,20.98
2022-10-20T04:55:10.383Z,21.12
2022-10-20T05:00:15.678Z,21.41
2022-10-20T05:05:19.004Z,21.84
2022-10-20T05:10:22.712Z,22.05
2022-10-20T05:15:27.456Z,22.08
2022-10-20T05:20:36.826Z,21.99
2022-10-20T05:25:49.374Z,21.94
2022-10-20T05:30:53.849Z,21.90
2022-10-20T05:35:58.732Z,21.94
2022-10-20T05:41:14.022Z,22.11
2022-10-20T05:46:18.152Z,22.30
2022-10-20T05:51:25.755Z,22.54
2022-10-20T05:56:32.825Z,22.82
2022-10-20T06:01:39.829Z,23.20
2022-10-20T06:06:43.551Z,23.40
2022-10-20T06:11:47.097Z,23.27
2022-10-20T06:16:52.455Z,23.23
2022-10-20T06:21:55.707Z,23.42
2022-10-20T06:26:59.350Z,23.53
2022-10-20T06:32:02.867Z,23.68
2022-10-20T06:37:06.471Z,23.65
2022-10-20T06:42:16.018Z,23.54
2022-10-20T06:47:22.287Z,23.67
2022-10-20T06:52:26.301Z,24.23
2022-10-20T06:57:32.273Z,24.41
2022-10-20T07:02:41.735Z,24.46
2022-10-20T07:07:48.356Z,24.39
2022-10-20T07:12:51.708Z,24.38
2022-10-20T07:17:54.943Z,24.31
2022-10-20T07:22:58.258Z,24.16
2022-10-20T07:28:01.692Z,24.12
2022-10-20T07:33:06.071Z,24.21
2022-10-20T07:38:10.351Z,24.51
2022-10-20T07:43:14.080Z,24.84
2022-10-20T07:48:17.389Z,24.92
2022-10-20T07:53:21.290Z,24.98
2022-10-20T07:58:25.531Z,24.91
2022-10-20T08:03:28.937Z,24.97
2022-10-20T08:08:33.374Z,24.94
2022-10-20T08:13:36.628Z,24.92
2022-10-20T08:24:03.637Z,25.13
2022-10-20T08:29:06.913Z,25.15
2022-10-20T08:34:10.352Z,25.07
2022-10-20T08:39:13.656Z,24.83
2022-10-20T08:44:26.494Z,24.55
2022-10-20T08:49:33.915Z,24.45
2022-10-20T08:54:37.490Z,24.57
2022-10-20T08:59:40.999Z,24.61
2022-10-20T09:04:47.188Z,24.62
2022-10-20T09:09:50.934Z,24.87
2022-10-20T09:14:55.672Z,25.23
2022-10-20T09:20:01.387Z,25.55
2022-10-20T09:25:06.112Z,25.74
2022-10-20T09:30:24.466Z,25.62
2022-10-20T09:35:36.220Z,25.55
2022-10-20T09:40:46.981Z,25.54
2022-10-20T09:45:54.994Z,25.55
2022-10-20T09:50:59.624Z,25.35
2022-10-20T09:56:03.220Z,25.26
2022-10-20T10:01:13.561Z,25.11
2022-10-20T10:06:31.236Z,25.10
2022-10-20T10:11:38.739Z,25.02
2022-10-20T10:16:46.737Z,25.00
2022-10-20T10:21:56.888Z,25.11
2022-10-20T10:27:00.089Z,25.15
2022-10-20T10:32:26.294Z,25.13
2022-10-20T10:37:34.019Z,25.10
2022-10-20T10:42:41.408Z,25.07
2022-10-20T10:48:02.819Z,24.93
2022-10-20T10:53:35.495Z,24.86
2022-10-20T10:59:06.489Z,24.71
2022-10-20T11:04:47.443Z,24.82
2022-10-20T11:10:19.388Z,24.84
2022-10-20T11:15:42.458Z,25.09
2022-10-20T11:21:21.154Z,25.42
2022-10-20T11:26:35.486Z,25.55
2022-10-20T11:31:51.886Z,25.35
2022-10-20T11:37:26.399Z,25.02
2022-10-20T11:43:08.894Z,25.01
2022-10-20T11:48:38.992Z,24.94
2022-10-20T11:53:55.070Z,25.03
2022-10-20T11:59:10.397Z,25.12
2022-10-20T12:04:36.719Z,24.90
2022-10-20T12:10:06.345Z,24.84
2022-10-20T12:15:24.117Z,24.66
2022-10-20T12:20:28.260Z,24.70
2022-10-20T12:25:31.553Z,25.04
2022-10-20T12:30:37.939Z,25.16
2022-10-20T12:36:19.542Z,24.87
2022-10-20T12:41:25.631Z,24.68
2022-10-20T12:46:32.222Z,24.59
2022-10-20T12:51:41.161Z,24.51
2022-10-20T12:56:45.248Z,24.34
2022-10-20T13:02:10.106Z,24.37
2022-10-20T13:07:13.654Z,24.57
2022-10-20T13:12:27.918Z,24.75
2022-10-20T13:17:45.517Z,24.71
2022-10-20T13:22:53.865Z,24.42
2022-10-20T13:28:13.636Z,24.23
2022-10-20T13:34:03.427Z,24.09
2022-10-20T13:39:12.862Z,23.91
2022-10-20T13:44:43.942Z,24.03
2022-10-20T13:49:54.305Z,24.19
2022-10-20T13:55:00.146Z,24.19
2022-10-20T14:00:24.665Z,24.07
2022-10-20T14:05:38.166Z,23.92
2022-10-20T14:11:05.770Z,23.82
2022-10-20T14:16:21.515Z,23.69
2022-10-20T14:21:25.015Z,23.62
2022-10-20T14:26:29.477Z,23.49
2022-10-20T14:31:33.090Z,23.35
2022-10-20T14:36:36.374Z,23.25
2022-10-20T14:41:39.806Z,23.10
2022-10-20T14:46:47.018Z,22.96
2022-10-20T14:52:00.716Z,22.86
2022-10-20T14:57:10.270Z,22.75
2022-10-20T15:02:17.591Z,22.70
2022-10-20T15:07:28.896Z,22.66
2022-10-20T15:12:38.220Z,22.56
2022-10-20T15:17:49.107Z,22.47
2022-10-20T15:22:55.275Z,22.35
2022-10-20T15:27:59.730Z,22.26
2022-10-20T15:33:04.459Z,22.23
2022-10-20T15:38:09.789Z,22.21
2022-10-20T15:43:16.501Z,22.14
2022-10-20T15:48:20.650Z,22.13
2022-10-20T15:53:24.353Z,22.14
2022-10-20T15:58:30.936Z,22.12
2022-10-20T16:03:34.214Z,22.12
2022-10-20T16:08:41.204Z,22.07
2022-10-20T16:13:45.252Z,22.02
2022-10-20T16:18:49.073Z,22.04
2022-10-20T16:23:52.712Z,22.03
2022-10-20T16:28:56.248Z,22.01
2022-10-20T16:33:59.743Z,21.97
2022-10-20T16:39:03.370Z,21.97
2022-10-20T16:44:07.266Z,21.97
2022-10-20T16:49:11.079Z,21.96
2022-10-20T16:54:14.572Z,22.04
2022-10-20T16:59:17.899Z,22.07
2022-10-20T17:04:21.223Z,22.12
2022-10-20T17:09:24.866Z,22.15
2022-10-20T17:14:28.080Z,22.17
2022-10-20T17:19:31.427Z,22.15
2022-10-20T17:24:34.889Z,22.18
2022-10-20T17:29:39.876Z,22.24
2022-10-20T17:34:46.561Z,22.28
2022-10-20T17:39:49.686Z,22.29
2022-10-20T17:44:52.912Z,22.28
2022-10-20T17:49:56.209Z,22.27
2022-10-20T17:55:00.363Z,22.27
2022-10-20T18:00:11.033Z,22.23
2022-10-20T18:05:19.004Z,22.20
2022-10-20T18:15:30.929Z,21.98
2022-10-20T18:20:34.437Z,21.94
2022-10-20T18:25:37.923Z,21.96
2022-10-20T18:30:41.398Z,21.99
2022-10-20T18:35:45.247Z,22.00
2022-10-20T18:40:48.914Z,21.98
2022-10-20T18:45:52.479Z,21.92
2022-10-20T18:51:01.671Z,21.89
2022-10-20T18:56:18.943Z,21.81
2022-10-20T19:01:26.981Z,21.81
2022-10-20T19:06:42.949Z,21.84
2022-10-20T19:11:47.666Z,21.84
2022-10-20T19:16:51.283Z,21.88
2022-10-20T19:21:54.610Z,21.95
2022-10-20T19:32:22.352Z,21.92
2022-10-20T19:37:25.915Z,21.86
2022-10-20T19:42:29.499Z,21.79
2022-10-20T19:47:32.807Z,21.74
2022-10-20T19:52:36.317Z,21.70
2022-10-20T20:02:44.861Z,21.61
2022-10-20T20:07:48.283Z,21.55
2022-10-20T20:12:54.376Z,21.50
2022-10-20T20:17:58.179Z,21.44
2022-10-20T20:23:02.047Z,21.40
2022-10-20T20:28:06.652Z,21.38
2022-10-20T20:33:11.297Z,21.35
2022-10-20T20:38:14.853Z,21.31
2022-10-20T20:43:20.474Z,21.29
2022-10-20T20:48:25.262Z,21.28
2022-10-20T20:53:28.878Z,21.25
2022-10-20T20:58:32.554Z,21.25
2022-10-20T21:03:36.347Z,21.26
2022-10-20T21:08:43.541Z,21.28
2022-10-20T21:13:58.560Z,21.35
2022-10-20T21:19:10.117Z,21.44
2022-10-20T21:24:13.872Z,21.44
2022-10-20T21:29:17.904Z,21.49
2022-10-20T21:34:21.766Z,21.49
2022-10-20T21:39:25.021Z,21.46
2022-10-20T21:44:28.501Z,21.43
2022-10-20T21:49:31.889Z,21.44
2022-10-20T21:54:35.358Z,21.43
2022-10-20T21:59:39.006Z,21.41
2022-10-20T22:04:42.467Z,21.34
2022-10-20T22:09:46.054Z,21.28
2022-10-20T22:14:49.581Z,21.24
2022-10-20T22:19:53.000Z,21.25
2022-10-20T22:24:56.152Z,21.23
2022-10-20T22:29:59.301Z,21.25
2022-10-20T22:35:02.520Z,21.24
2022-10-20T22:40:06.846Z,21.23
2022-10-20T22:45:11.349Z,21.19
2022-10-20T22:50:14.863Z,21.14
2022-10-20T22:55:18.805Z,21.09
2022-10-20T23:00:22.033Z,21.04
2022-10-20T23:05:25.716Z,21.00
2022-10-20T23:10:29.364Z,20.98
2022-10-20T23:15:32.893Z,20.96
2022-10-20T23:20:43.195Z,20.97
2022-10-20T23:25:50.820Z,20.95
2022-10-20T23:31:06.635Z,20.93
2022-10-20T23:36:14.991Z,20.91
2022-10-20T23:41:18.529Z,20.88
2022-10-20T23:46:22.533Z,20.88
2022-10-20T23:51:25.983Z,20.85
2022-10-20T23:56:29.440Z,20.83
